sensor_id;sensor_type;location;lat;lon;timestamp;pressure;altitude;pressure_sealevel;temperature;humidity
50710;BME280;37033;49.994;21.992;2023-02-23T00:02:54;99597.81;;;-1.18;70.31
50710;BME280;37033;49.994;21.992;2023-02-23T00:05:48;99597.99;;;-1.23;70.54
50710;BME280;37033;49.994;21.992;2023-02-23T00:08:38;99594.98;;;-1.27;70.68
50710;BME280;37033;49.994;21.992;2023-02-23T00:11:28;99596.06;;;-1.31;70.64
50710;BME280;37033;49.994;21.992;2023-02-23T00:14:18;99592.58;;;-1.34;70.67
50710;BME280;37033;49.994;21.992;2023-02-23T00:17:08;99591.86;;;-1.40;70.74
50710;BME280;37033;49.994;21.992;2023-02-23T00:20:01;99599.52;;;-1.44;70.87
50710;BME280;37033;49.994;21.992;2023-02-23T00:22:56;99596.95;;;-1.46;70.91
50710;BME280;37033;49.994;21.992;2023-02-23T00:25:45;99596.91;;;-1.47;71.07
50710;BME280;37033;49.994;21.992;2023-02-23T00:28:35;99595.48;;;-1.49;71.10
50710;BME280;37033;49.994;21.992;2023-02-23T00:31:26;99593.83;;;-1.50;71.07
50710;BME280;37033;49.994;21.992;2023-02-23T00:34:18;99591.64;;;-1.53;71.25
50710;BME280;37033;49.994;21.992;2023-02-23T00:37:09;99589.09;;;-1.56;71.42
50710;BME280;37033;49.994;21.992;2023-02-23T00:39:59;99589.91;;;-1.59;71.49
50710;BME280;37033;49.994;21.992;2023-02-23T00:42:49;99593.02;;;-1.60;71.51
50710;BME280;37033;49.994;21.992;2023-02-23T00:45:40;99590.27;;;-1.62;71.65
50710;BME280;37033;49.994;21.992;2023-02-23T00:48:30;99589.72;;;-1.64;71.70
50710;BME280;37033;49.994;21.992;2023-02-23T00:51:20;99590.11;;;-1.66;71.81
50710;BME280;37033;49.994;21.992;2023-02-23T00:54:12;99590.73;;;-1.68;71.72
50710;BME280;37033;49.994;21.992;2023-02-23T00:57:02;99591.11;;;-1.71;71.77
50710;BME280;37033;49.994;21.992;2023-02-23T00:59:51;99593.87;;;-1.73;71.86
50710;BME280;37033;49.994;21.992;2023-02-23T01:02:42;99595.83;;;-1.75;71.99
50710;BME280;37033;49.994;21.992;2023-02-23T01:05:34;99594.41;;;-1.76;72.05
50710;BME280;37033;49.994;21.992;2023-02-23T01:08:24;99595.94;;;-1.78;71.99
50710;BME280;37033;49.994;21.992;2023-02-23T01:11:16;99599.88;;;-1.80;72.19
50710;BME280;37033;49.994;21.992;2023-02-23T01:14:06;99597.20;;;-1.82;72.39
50710;BME280;37033;49.994;21.992;2023-02-23T01:16:56;99596.12;;;-1.85;72.43
50710;BME280;37033;49.994;21.992;2023-02-23T01:19:46;99597.71;;;-1.87;72.58
50710;BME280;37033;49.994;21.992;2023-02-23T01:22:35;99594.82;;;-1.90;72.61
50710;BME280;37033;49.994;21.992;2023-02-23T01:25:24;99593.21;;;-1.93;72.67
50710;BME280;37033;49.994;21.992;2023-02-23T01:28:16;99592.65;;;-1.96;72.70
50710;BME280;37033;49.994;21.992;2023-02-23T01:31:09;99595.75;;;-1.99;72.96
50710;BME280;37033;49.994;21.992;2023-02-23T01:34:01;99592.34;;;-2.02;72.91
50710;BME280;37033;49.994;21.992;2023-02-23T01:36:50;99591.61;;;-2.04;72.92
50710;BME280;37033;49.994;21.992;2023-02-23T01:39:40;99589.90;;;-2.06;73.00
50710;BME280;37033;49.994;21.992;2023-02-23T01:42:30;99591.70;;;-2.08;73.03
50710;BME280;37033;49.994;21.992;2023-02-23T01:45:25;99587.18;;;-2.10;73.12
50710;BME280;37033;49.994;21.992;2023-02-23T01:48:17;99582.30;;;-2.13;73.24
50710;BME280;37033;49.994;21.992;2023-02-23T01:51:10;99583.51;;;-2.16;73.30
50710;BME280;37033;49.994;21.992;2023-02-23T01:54:06;99582.63;;;-2.18;73.26
50710;BME280;37033;49.994;21.992;2023-02-23T01:57:01;99581.84;;;-2.21;73.26
50710;BME280;37033;49.994;21.992;2023-02-23T01:59:53;99578.09;;;-2.25;73.45
50710;BME280;37033;49.994;21.992;2023-02-23T02:02:43;99577.87;;;-2.26;73.46
50710;BME280;37033;49.994;21.992;2023-02-23T02:05:32;99576.36;;;-2.27;73.64
50710;BME280;37033;49.994;21.992;2023-02-23T02:08:22;99576.98;;;-2.29;73.64
50710;BME280;37033;49.994;21.992;2023-02-23T02:11:15;99574.73;;;-2.32;73.65
50710;BME280;37033;49.994;21.992;2023-02-23T02:14:21;99574.64;;;-2.34;73.79
50710;BME280;37033;49.994;21.992;2023-02-23T02:17:23;99574.63;;;-2.36;73.88
50710;BME280;37033;49.994;21.992;2023-02-23T02:20:30;99570.40;;;-2.38;73.98
50710;BME280;37033;49.994;21.992;2023-02-23T02:26:56;99572.77;;;-2.44;74.09
50710;BME280;37033;49.994;21.992;2023-02-23T02:33:42;99573.08;;;-2.51;74.08
50710;BME280;37033;49.994;21.992;2023-02-23T02:36:58;99571.22;;;-2.53;74.34
50710;BME280;37033;49.994;21.992;2023-02-23T02:40:01;99570.67;;;-2.55;74.29
50710;BME280;37033;49.994;21.992;2023-02-23T02:43:07;99569.13;;;-2.57;74.38
50710;BME280;37033;49.994;21.992;2023-02-23T02:46:04;99568.27;;;-2.60;74.43
50710;BME280;37033;49.994;21.992;2023-02-23T02:48:59;99565.48;;;-2.62;74.46
50710;BME280;37033;49.994;21.992;2023-02-23T02:51:57;99568.15;;;-2.65;74.43
50710;BME280;37033;49.994;21.992;2023-02-23T02:54:51;99564.73;;;-2.69;74.53
50710;BME280;37033;49.994;21.992;2023-02-23T02:57:43;99568.72;;;-2.71;74.53
50710;BME280;37033;49.994;21.992;2023-02-23T03:00:38;99568.59;;;-2.75;74.47
50710;BME280;37033;49.994;21.992;2023-02-23T03:03:47;99568.35;;;-2.78;74.66
50710;BME280;37033;49.994;21.992;2023-02-23T03:06:59;99565.49;;;-2.82;74.60
50710;BME280;37033;49.994;21.992;2023-02-23T03:10:14;99573.14;;;-2.86;74.65
50710;BME280;37033;49.994;21.992;2023-02-23T03:13:35;99572.34;;;-2.88;74.81
50710;BME280;37033;49.994;21.992;2023-02-23T03:16:53;99574.45;;;-2.91;75.01
50710;BME280;37033;49.994;21.992;2023-02-23T03:20:09;99578.60;;;-2.94;74.97
50710;BME280;37033;49.994;21.992;2023-02-23T03:23:25;99575.61;;;-2.98;75.07
50710;BME280;37033;49.994;21.992;2023-02-23T03:26:38;99574.95;;;-3.01;75.24
50710;BME280;37033;49.994;21.992;2023-02-23T03:29:52;99576.05;;;-3.03;75.12
50710;BME280;37033;49.994;21.992;2023-02-23T03:33:06;99575.61;;;-3.06;75.28
50710;BME280;37033;49.994;21.992;2023-02-23T03:36:16;99574.88;;;-3.09;75.21
50710;BME280;37033;49.994;21.992;2023-02-23T03:39:30;99571.77;;;-3.11;75.48
50710;BME280;37033;49.994;21.992;2023-02-23T03:42:40;99570.06;;;-3.14;75.48
50710;BME280;37033;49.994;21.992;2023-02-23T03:45:51;99566.77;;;-3.17;75.47
50710;BME280;37033;49.994;21.992;2023-02-23T03:49:00;99569.58;;;-3.20;75.49
50710;BME280;37033;49.994;21.992;2023-02-23T03:52:15;99566.54;;;-3.22;75.63
50710;BME280;37033;49.994;21.992;2023-02-23T03:55:26;99567.30;;;-3.24;75.53
50710;BME280;37033;49.994;21.992;2023-02-23T03:58:37;99565.80;;;-3.27;75.61
50710;BME280;37033;49.994;21.992;2023-02-23T04:01:47;99564.51;;;-3.30;75.51
50710;BME280;37033;49.994;21.992;2023-02-23T04:05:00;99565.61;;;-3.32;75.62
50710;BME280;37033;49.994;21.992;2023-02-23T04:08:13;99560.70;;;-3.34;75.74
50710;BME280;37033;49.994;21.992;2023-02-23T04:11:29;99565.73;;;-3.37;75.67
50710;BME280;37033;49.994;21.992;2023-02-23T04:14:44;99566.86;;;-3.42;75.77
50710;BME280;37033;49.994;21.992;2023-02-23T04:17:36;99563.46;;;-3.45;75.73
50710;BME280;37033;49.994;21.992;2023-02-23T04:20:27;99564.42;;;-3.48;75.82
50710;BME280;37033;49.994;21.992;2023-02-23T04:23:16;99560.02;;;-3.50;75.79
50710;BME280;37033;49.994;21.992;2023-02-23T04:26:06;99561.19;;;-3.52;75.79
50710;BME280;37033;49.994;21.992;2023-02-23T04:28:55;99560.96;;;-3.56;75.76
50710;BME280;37033;49.994;21.992;2023-02-23T04:31:45;99557.80;;;-3.60;75.77
50710;BME280;37033;49.994;21.992;2023-02-23T04:34:35;99560.65;;;-3.64;75.75
50710;BME280;37033;49.994;21.992;2023-02-23T04:37:25;99562.52;;;-3.67;75.81
50710;BME280;37033;49.994;21.992;2023-02-23T04:40:15;99557.16;;;-3.70;75.93
50710;BME280;37033;49.994;21.992;2023-02-23T04:43:05;99558.43;;;-3.74;75.78
50710;BME280;37033;49.994;21.992;2023-02-23T04:45:54;99559.48;;;-3.78;75.80
50710;BME280;37033;49.994;21.992;2023-02-23T04:48:44;99560.98;;;-3.82;76.06
50710;BME280;37033;49.994;21.992;2023-02-23T04:51:33;99557.71;;;-3.85;75.95
50710;BME280;37033;49.994;21.992;2023-02-23T04:54:25;99558.55;;;-3.89;76.09
50710;BME280;37033;49.994;21.992;2023-02-23T04:57:14;99553.55;;;-3.92;76.11
50710;BME280;37033;49.994;21.992;2023-02-23T05:00:06;99557.94;;;-3.93;76.23
50710;BME280;37033;49.994;21.992;2023-02-23T05:02:56;99551.94;;;-3.95;76.28
50710;BME280;37033;49.994;21.992;2023-02-23T05:05:46;99552.55;;;-3.96;76.42
50710;BME280;37033;49.994;21.992;2023-02-23T05:08:36;99557.09;;;-3.97;76.48
50710;BME280;37033;49.994;21.992;2023-02-23T05:11:25;99555.79;;;-3.97;76.66
50710;BME280;37033;49.994;21.992;2023-02-23T05:14:15;99555.73;;;-3.96;76.61
50710;BME280;37033;49.994;21.992;2023-02-23T05:17:05;99557.95;;;-3.97;76.77
50710;BME280;37033;49.994;21.992;2023-02-23T05:19:55;99555.85;;;-3.98;76.73
50710;BME280;37033;49.994;21.992;2023-02-23T05:22:45;99556.15;;;-3.97;76.88
50710;BME280;37033;49.994;21.992;2023-02-23T05:25:34;99553.86;;;-3.97;76.89
50710;BME280;37033;49.994;21.992;2023-02-23T05:28:26;99564.05;;;-3.96;76.89
50710;BME280;37033;49.994;21.992;2023-02-23T05:31:16;99563.70;;;-3.96;77.03
50710;BME280;37033;49.994;21.992;2023-02-23T05:34:07;99563.79;;;-3.95;77.02
50710;BME280;37033;49.994;21.992;2023-02-23T05:36:57;99568.20;;;-3.93;77.15
50710;BME280;37033;49.994;21.992;2023-02-23T05:39:46;99571.20;;;-3.91;77.19
50710;BME280;37033;49.994;21.992;2023-02-23T05:42:36;99574.16;;;-3.89;77.43
50710;BME280;37033;49.994;21.992;2023-02-23T05:45:26;99571.33;;;-3.85;77.50
50710;BME280;37033;49.994;21.992;2023-02-23T05:48:16;99566.00;;;-3.80;77.51
50710;BME280;37033;49.994;21.992;2023-02-23T05:51:09;99569.08;;;-3.72;77.65
50710;BME280;37033;49.994;21.992;2023-02-23T05:53:59;99567.93;;;-3.66;77.86
50710;BME280;37033;49.994;21.992;2023-02-23T05:56:48;99567.64;;;-3.59;77.89
50710;BME280;37033;49.994;21.992;2023-02-23T05:59:38;99567.71;;;-3.50;78.19
50710;BME280;37033;49.994;21.992;2023-02-23T06:02:27;99568.69;;;-3.44;78.11
50710;BME280;37033;49.994;21.992;2023-02-23T06:05:17;99571.61;;;-3.36;78.16
50710;BME280;37033;49.994;21.992;2023-02-23T06:08:06;99569.29;;;-3.24;78.25
50710;BME280;37033;49.994;21.992;2023-02-23T06:10:56;99570.20;;;-3.08;78.36
50710;BME280;37033;49.994;21.992;2023-02-23T06:13:46;99572.09;;;-2.93;78.60
50710;BME280;37033;49.994;21.992;2023-02-23T06:16:35;99571.28;;;-2.79;79.10
50710;BME280;37033;49.994;21.992;2023-02-23T06:19:25;99568.26;;;-2.65;79.08
50710;BME280;37033;49.994;21.992;2023-02-23T06:22:14;99571.59;;;-2.50;79.23
50710;BME280;37033;49.994;21.992;2023-02-23T06:25:07;99573.48;;;-2.35;79.51
50710;BME280;37033;49.994;21.992;2023-02-23T06:27:59;99571.36;;;-2.19;80.29
50710;BME280;37033;49.994;21.992;2023-02-23T06:30:51;99568.67;;;-2.05;80.37
50710;BME280;37033;49.994;21.992;2023-02-23T06:33:41;99569.21;;;-1.91;80.57
50710;BME280;37033;49.994;21.992;2023-02-23T06:36:30;99570.19;;;-1.76;80.95
50710;BME280;37033;49.994;21.992;2023-02-23T06:39:20;99568.80;;;-1.61;81.78
50710;BME280;37033;49.994;21.992;2023-02-23T06:42:09;99572.45;;;-1.48;82.13
50710;BME280;37033;49.994;21.992;2023-02-23T06:44:59;99573.94;;;-1.37;81.94
50710;BME280;37033;49.994;21.992;2023-02-23T06:47:49;99570.61;;;-1.25;82.41
50710;BME280;37033;49.994;21.992;2023-02-23T06:50:39;99568.26;;;-1.15;82.39
50710;BME280;37033;49.994;21.992;2023-02-23T06:53:28;99569.75;;;-1.05;82.45
50710;BME280;37033;49.994;21.992;2023-02-23T06:56:19;99570.55;;;-0.97;82.77
50710;BME280;37033;49.994;21.992;2023-02-23T06:59:09;99565.76;;;-0.89;82.98
50710;BME280;37033;49.994;21.992;2023-02-23T07:01:58;99569.47;;;-0.81;83.00
50710;BME280;37033;49.994;21.992;2023-02-23T07:04:49;99572.00;;;-0.73;83.17
50710;BME280;37033;49.994;21.992;2023-02-23T07:07:38;99571.44;;;-0.66;83.12
50710;BME280;37033;49.994;21.992;2023-02-23T07:10:28;99571.05;;;-0.59;83.06
50710;BME280;37033;49.994;21.992;2023-02-23T07:13:18;99566.02;;;-0.51;83.35
50710;BME280;37033;49.994;21.992;2023-02-23T07:16:10;99569.49;;;-0.44;83.50
50710;BME280;37033;49.994;21.992;2023-02-23T07:19:02;99571.68;;;-0.38;83.59
50710;BME280;37033;49.994;21.992;2023-02-23T07:21:52;99573.64;;;-0.33;83.64
50710;BME280;37033;49.994;21.992;2023-02-23T07:24:41;99573.02;;;-0.27;83.47
50710;BME280;37033;49.994;21.992;2023-02-23T07:27:31;99572.11;;;-0.23;83.46
50710;BME280;37033;49.994;21.992;2023-02-23T07:30:21;99569.38;;;-0.18;83.48
50710;BME280;37033;49.994;21.992;2023-02-23T07:33:12;99566.15;;;-0.12;83.47
50710;BME280;37033;49.994;21.992;2023-02-23T07:36:01;99567.95;;;-0.06;83.40
50710;BME280;37033;49.994;21.992;2023-02-23T07:38:51;99571.34;;;0.01;83.30
50710;BME280;37033;49.994;21.992;2023-02-23T07:41:41;99568.70;;;0.07;83.22
50710;BME280;37033;49.994;21.992;2023-02-23T07:44:31;99568.14;;;0.15;83.16
50710;BME280;37033;49.994;21.992;2023-02-23T07:47:20;99568.14;;;0.25;83.04
50710;BME280;37033;49.994;21.992;2023-02-23T07:50:18;99563.56;;;0.33;82.82
50710;BME280;37033;49.994;21.992;2023-02-23T07:53:08;99559.73;;;0.40;82.62
50710;BME280;37033;49.994;21.992;2023-02-23T07:55:58;99559.41;;;0.46;82.57
50710;BME280;37033;49.994;21.992;2023-02-23T07:58:50;99561.28;;;0.53;82.30
50710;BME280;37033;49.994;21.992;2023-02-23T08:01:40;99562.34;;;0.60;82.27
50710;BME280;37033;49.994;21.992;2023-02-23T08:04:30;99560.39;;;0.68;82.15
50710;BME280;37033;49.994;21.992;2023-02-23T08:07:19;99559.04;;;0.71;81.88
50710;BME280;37033;49.994;21.992;2023-02-23T08:10:11;99564.60;;;0.78;81.84
50710;BME280;37033;49.994;21.992;2023-02-23T08:13:00;99561.29;;;0.86;81.68
50710;BME280;37033;49.994;21.992;2023-02-23T08:15:50;99558.91;;;0.90;81.41
50710;BME280;37033;49.994;21.992;2023-02-23T08:18:40;99557.54;;;0.94;81.29
50710;BME280;37033;49.994;21.992;2023-02-23T08:21:30;99562.48;;;0.96;81.09
50710;BME280;37033;49.994;21.992;2023-02-23T08:24:20;99563.95;;;1.02;81.07
50710;BME280;37033;49.994;21.992;2023-02-23T08:27:09;99567.46;;;1.09;80.89
50710;BME280;37033;49.994;21.992;2023-02-23T08:30:00;99564.89;;;1.19;80.82
50710;BME280;37033;49.994;21.992;2023-02-23T08:32:51;99563.23;;;1.26;80.40
50710;BME280;37033;49.994;21.992;2023-02-23T08:35:41;99566.67;;;1.30;80.10
50710;BME280;37033;49.994;21.992;2023-02-23T08:38:31;99567.91;;;1.39;80.22
50710;BME280;37033;49.994;21.992;2023-02-23T08:41:23;99565.06;;;1.52;80.00
50710;BME280;37033;49.994;21.992;2023-02-23T08:44:13;99566.30;;;1.64;80.02
50710;BME280;37033;49.994;21.992;2023-02-23T08:47:02;99562.84;;;1.78;79.65
50710;BME280;37033;49.994;21.992;2023-02-23T08:49:52;99564.44;;;1.92;79.42
50710;BME280;37033;49.994;21.992;2023-02-23T08:52:42;99556.85;;;2.03;79.08
50710;BME280;37033;49.994;21.992;2023-02-23T08:55:32;99556.14;;;2.12;78.73
50710;BME280;37033;49.994;21.992;2023-02-23T08:58:22;99550.97;;;2.17;78.33
50710;BME280;37033;49.994;21.992;2023-02-23T09:01:18;99552.63;;;2.18;78.18
50710;BME280;37033;49.994;21.992;2023-02-23T09:04:08;99550.34;;;2.27;78.15
50710;BME280;37033;49.994;21.992;2023-02-23T09:06:58;99548.31;;;2.36;77.90
50710;BME280;37033;49.994;21.992;2023-02-23T09:09:54;99546.13;;;2.47;77.75
50710;BME280;37033;49.994;21.992;2023-02-23T09:12:43;99544.67;;;2.59;77.46
50710;BME280;37033;49.994;21.992;2023-02-23T09:15:33;99548.13;;;2.64;76.72
50710;BME280;37033;49.994;21.992;2023-02-23T09:18:24;99544.83;;;2.67;76.46
50710;BME280;37033;49.994;21.992;2023-02-23T09:21:17;99540.45;;;2.70;76.30
50710;BME280;37033;49.994;21.992;2023-02-23T09:24:09;99545.79;;;2.75;76.20
50710;BME280;37033;49.994;21.992;2023-02-23T09:26:59;99543.95;;;2.83;76.23
50710;BME280;37033;49.994;21.992;2023-02-23T09:29:49;99542.48;;;2.90;76.03
50710;BME280;37033;49.994;21.992;2023-02-23T09:32:38;99539.23;;;2.96;75.74
50710;BME280;37033;49.994;21.992;2023-02-23T09:35:28;99534.30;;;3.02;75.32
50710;BME280;37033;49.994;21.992;2023-02-23T09:38:17;99532.66;;;3.06;75.05
50710;BME280;37033;49.994;21.992;2023-02-23T09:41:20;99529.98;;;3.03;74.44
50710;BME280;37033;49.994;21.992;2023-02-23T09:44:17;99531.47;;;3.06;74.45
50710;BME280;37033;49.994;21.992;2023-02-23T09:47:20;99525.80;;;3.05;74.13
50710;BME280;37033;49.994;21.992;2023-02-23T09:50:17;99529.39;;;3.10;74.14
50710;BME280;37033;49.994;21.992;2023-02-23T09:53:30;99529.19;;;3.17;74.22
50710;BME280;37033;49.994;21.992;2023-02-23T09:56:28;99529.27;;;3.24;73.94
50710;BME280;37033;49.994;21.992;2023-02-23T09:59:22;99525.06;;;3.25;73.79
50710;BME280;37033;49.994;21.992;2023-02-23T10:02:21;99516.86;;;3.36;74.25
50710;BME280;37033;49.994;21.992;2023-02-23T10:05:13;99514.94;;;3.46;73.54
50710;BME280;37033;49.994;21.992;2023-02-23T10:08:06;99511.33;;;3.51;73.08
50710;BME280;37033;49.994;21.992;2023-02-23T10:11:01;99512.47;;;3.52;72.67
50710;BME280;37033;49.994;21.992;2023-02-23T10:14:06;99511.08;;;3.50;72.70
50710;BME280;37033;49.994;21.992;2023-02-23T10:17:13;99514.60;;;3.55;72.76
50710;BME280;37033;49.994;21.992;2023-02-23T10:20:12;99510.51;;;3.63;72.86
50710;BME280;37033;49.994;21.992;2023-02-23T10:23:05;99507.98;;;3.70;72.65
50710;BME280;37033;49.994;21.992;2023-02-23T10:25:58;99504.67;;;3.77;72.49
50710;BME280;37033;49.994;21.992;2023-02-23T10:28:49;99508.27;;;3.81;72.41
50710;BME280;37033;49.994;21.992;2023-02-23T10:31:43;99504.77;;;3.86;72.42
50710;BME280;37033;49.994;21.992;2023-02-23T10:34:35;99498.75;;;3.92;72.07
50710;BME280;37033;49.994;21.992;2023-02-23T10:37:25;99496.53;;;3.96;71.71
50710;BME280;37033;49.994;21.992;2023-02-23T10:40:17;99490.30;;;3.98;71.06
50710;BME280;37033;49.994;21.992;2023-02-23T10:43:08;99488.31;;;3.99;70.98
50710;BME280;37033;49.994;21.992;2023-02-23T10:45:59;99484.81;;;4.01;71.01
50710;BME280;37033;49.994;21.992;2023-02-23T10:48:50;99480.09;;;4.04;71.10
50710;BME280;37033;49.994;21.992;2023-02-23T10:51:43;99475.30;;;4.06;70.64
50710;BME280;37033;49.994;21.992;2023-02-23T10:54:41;99473.77;;;4.07;70.35
50710;BME280;37033;49.994;21.992;2023-02-23T10:57:34;99468.25;;;4.11;70.57
50710;BME280;37033;49.994;21.992;2023-02-23T11:00:28;99467.56;;;4.16;70.64
50710;BME280;37033;49.994;21.992;2023-02-23T11:03:25;99468.41;;;4.25;70.52
50710;BME280;37033;49.994;21.992;2023-02-23T11:06:30;99462.37;;;4.33;70.58
50710;BME280;37033;49.994;21.992;2023-02-23T11:09:25;99459.93;;;4.43;70.31
50710;BME280;37033;49.994;21.992;2023-02-23T11:12:20;99454.39;;;4.51;70.12
50710;BME280;37033;49.994;21.992;2023-02-23T11:15:27;99454.25;;;4.59;70.13
50710;BME280;37033;49.994;21.992;2023-02-23T11:18:21;99450.70;;;4.65;70.02
50710;BME280;37033;49.994;21.992;2023-02-23T11:21:20;99442.58;;;4.69;69.64
50710;BME280;37033;49.994;21.992;2023-02-23T11:24:18;99443.36;;;4.71;69.15
50710;BME280;37033;49.994;21.992;2023-02-23T11:27:21;99434.23;;;4.77;69.16
50710;BME280;37033;49.994;21.992;2023-02-23T11:30:14;99431.50;;;4.81;69.10
50710;BME280;37033;49.994;21.992;2023-02-23T11:33:05;99429.05;;;4.84;68.96
50710;BME280;37033;49.994;21.992;2023-02-23T11:36:00;99424.30;;;4.85;68.77
50710;BME280;37033;49.994;21.992;2023-02-23T11:39:18;99416.48;;;4.91;69.13
50710;BME280;37033;49.994;21.992;2023-02-23T11:42:17;99414.92;;;4.99;68.80
50710;BME280;37033;49.994;21.992;2023-02-23T11:45:15;99413.27;;;5.04;68.51
50710;BME280;37033;49.994;21.992;2023-02-23T11:48:20;99412.23;;;5.07;68.35
50710;BME280;37033;49.994;21.992;2023-02-23T11:51:10;99408.92;;;5.12;68.01
50710;BME280;37033;49.994;21.992;2023-02-23T11:54:20;99409.48;;;5.19;67.97
50710;BME280;37033;49.994;21.992;2023-02-23T11:57:10;99401.44;;;5.22;67.50
50710;BME280;37033;49.994;21.992;2023-02-23T12:00:19;99397.05;;;5.25;67.52
50710;BME280;37033;49.994;21.992;2023-02-23T12:03:21;99394.48;;;5.31;67.13
50710;BME280;37033;49.994;21.992;2023-02-23T12:06:25;99383.40;;;5.40;67.20
50710;BME280;37033;49.994;21.992;2023-02-23T12:09:21;99383.82;;;5.48;67.15
50710;BME280;37033;49.994;21.992;2023-02-23T12:12:16;99378.45;;;5.58;66.87
50710;BME280;37033;49.994;21.992;2023-02-23T12:15:14;99370.02;;;5.67;66.07
50710;BME280;37033;49.994;21.992;2023-02-23T12:18:15;99369.92;;;5.73;65.59
50710;BME280;37033;49.994;21.992;2023-02-23T12:21:16;99370.45;;;5.79;66.09
50710;BME280;37033;49.994;21.992;2023-02-23T12:24:18;99367.37;;;5.86;65.78
50710;BME280;37033;49.994;21.992;2023-02-23T12:27:13;99359.21;;;5.93;65.93
50710;BME280;37033;49.994;21.992;2023-02-23T12:30:11;99356.56;;;6.01;65.37
50710;BME280;37033;49.994;21.992;2023-02-23T12:33:06;99351.66;;;6.05;65.01
50710;BME280;37033;49.994;21.992;2023-02-23T12:36:03;99350.68;;;6.14;65.24
50710;BME280;37033;49.994;21.992;2023-02-23T12:39:00;99348.69;;;6.23;64.83
50710;BME280;37033;49.994;21.992;2023-02-23T12:42:00;99342.05;;;6.30;64.88
50710;BME280;37033;49.994;21.992;2023-02-23T12:44:55;99338.92;;;6.39;64.45
50710;BME280;37033;49.994;21.992;2023-02-23T12:47:51;99337.02;;;6.46;63.95
50710;BME280;37033;49.994;21.992;2023-02-23T12:50:41;99330.98;;;6.50;63.95
50710;BME280;37033;49.994;21.992;2023-02-23T12:53:41;99329.20;;;6.57;63.76
50710;BME280;37033;49.994;21.992;2023-02-23T12:56:37;99324.20;;;6.65;64.20
50710;BME280;37033;49.994;21.992;2023-02-23T12:59:59;99324.24;;;6.78;63.96
50710;BME280;37033;49.994;21.992;2023-02-23T13:03:16;99315.16;;;6.87;63.70
50710;BME280;37033;49.994;21.992;2023-02-23T13:06:17;99315.92;;;6.96;64.19
50710;BME280;37033;49.994;21.992;2023-02-23T13:09:21;99310.56;;;7.06;63.59
50710;BME280;37033;49.994;21.992;2023-02-23T13:12:30;99309.81;;;7.12;63.31
50710;BME280;37033;49.994;21.992;2023-02-23T13:15:32;99304.55;;;7.20;63.03
50710;BME280;37033;49.994;21.992;2023-02-23T13:18:33;99299.22;;;7.24;63.06
50710;BME280;37033;49.994;21.992;2023-02-23T13:21:29;99294.66;;;7.28;62.67
50710;BME280;37033;49.994;21.992;2023-02-23T13:24:25;99288.40;;;7.35;63.07
50710;BME280;37033;49.994;21.992;2023-02-23T13:27:17;99283.15;;;7.39;63.07
50710;BME280;37033;49.994;21.992;2023-02-23T13:30:12;99276.73;;;7.44;62.89
50710;BME280;37033;49.994;21.992;2023-02-23T13:33:09;99276.25;;;7.42;62.43
50710;BME280;37033;49.994;21.992;2023-02-23T13:36:05;99269.18;;;7.38;62.28
50710;BME280;37033;49.994;21.992;2023-02-23T13:39:10;99272.02;;;7.37;62.52
50710;BME280;37033;49.994;21.992;2023-02-23T13:42:19;99270.39;;;7.38;62.12
50710;BME280;37033;49.994;21.992;2023-02-23T13:45:29;99266.36;;;7.37;62.46
50710;BME280;37033;49.994;21.992;2023-02-23T13:48:34;99263.18;;;7.39;62.21
50710;BME280;37033;49.994;21.992;2023-02-23T13:51:35;99262.83;;;7.42;61.79
50710;BME280;37033;49.994;21.992;2023-02-23T13:54:32;99260.84;;;7.44;62.27
50710;BME280;37033;49.994;21.992;2023-02-23T13:57:22;99257.02;;;7.48;62.04
50710;BME280;37033;49.994;21.992;2023-02-23T14:00:18;99252.41;;;7.51;61.93
50710;BME280;37033;49.994;21.992;2023-02-23T14:03:21;99249.42;;;7.53;61.69
50710;BME280;37033;49.994;21.992;2023-02-23T14:06:15;99249.70;;;7.55;61.82
50710;BME280;37033;49.994;21.992;2023-02-23T14:09:10;99242.88;;;7.58;61.98
50710;BME280;37033;49.994;21.992;2023-02-23T14:12:15;99239.16;;;7.63;62.15
50710;BME280;37033;49.994;21.992;2023-02-23T14:15:28;99236.89;;;7.68;61.75
50710;BME280;37033;49.994;21.992;2023-02-23T14:18:33;99233.33;;;7.70;61.36
50710;BME280;37033;49.994;21.992;2023-02-23T14:21:28;99235.64;;;7.72;61.71
50710;BME280;37033;49.994;21.992;2023-02-23T14:24:23;99231.14;;;7.77;61.53
50710;BME280;37033;49.994;21.992;2023-02-23T14:27:21;99225.44;;;7.79;61.67
50710;BME280;37033;49.994;21.992;2023-02-23T14:30:27;99225.73;;;7.83;61.62
50710;BME280;37033;49.994;21.992;2023-02-23T14:33:37;99224.35;;;7.83;61.37
50710;BME280;37033;49.994;21.992;2023-02-23T14:36:43;99221.86;;;7.82;61.47
50710;BME280;37033;49.994;21.992;2023-02-23T14:39:34;99224.05;;;7.81;61.27
50710;BME280;37033;49.994;21.992;2023-02-23T14:42:26;99218.11;;;7.80;61.53
50710;BME280;37033;49.994;21.992;2023-02-23T14:45:23;99220.89;;;7.77;61.65
50710;BME280;37033;49.994;21.992;2023-02-23T14:48:14;99218.64;;;7.74;61.99
50710;BME280;37033;49.994;21.992;2023-02-23T14:51:22;99214.73;;;7.71;61.99
50710;BME280;37033;49.994;21.992;2023-02-23T14:54:24;99214.83;;;7.65;62.15
50710;BME280;37033;49.994;21.992;2023-02-23T14:57:22;99215.78;;;7.62;62.35
50710;BME280;37033;49.994;21.992;2023-02-23T15:00:20;99212.47;;;7.58;62.58
50710;BME280;37033;49.994;21.992;2023-02-23T15:03:11;99208.00;;;7.54;62.69
50710;BME280;37033;49.994;21.992;2023-02-23T15:06:01;99207.01;;;7.47;62.93
50710;BME280;37033;49.994;21.992;2023-02-23T15:08:51;99205.82;;;7.42;63.01
50710;BME280;37033;49.994;21.992;2023-02-23T15:11:40;99204.80;;;7.37;63.11
50710;BME280;37033;49.994;21.992;2023-02-23T15:14:37;99202.03;;;7.30;63.28
50710;BME280;37033;49.994;21.992;2023-02-23T15:17:30;99200.48;;;7.25;63.37
50710;BME280;37033;49.994;21.992;2023-02-23T15:20:23;99199.84;;;7.19;63.40
50710;BME280;37033;49.994;21.992;2023-02-23T15:23:20;99194.35;;;7.09;63.42
50710;BME280;37033;49.994;21.992;2023-02-23T15:26:23;99194.48;;;7.00;63.58
50710;BME280;37033;49.994;21.992;2023-02-23T15:29:16;99191.48;;;6.89;63.64
50710;BME280;37033;49.994;21.992;2023-02-23T15:32:17;99190.73;;;6.81;63.81